createdAt,value
2023-02-15T00:00:19.553Z,27.80
2023-02-15T00:03:11.814Z,28.60
2023-02-15T00:05:44.113Z,24.70
2023-02-15T00:08:16.281Z,26.60
2023-02-15T00:10:48.664Z,25.20
2023-02-15T00:13:21.211Z,26.20
2023-02-15T00:15:53.730Z,24.00
2023-02-15T00:18:26.093Z,24.20
2023-02-15T00:20:59.162Z,24.00
2023-02-15T00:23:31.382Z,24.60
2023-02-15T00:26:11.828Z,24.40
2023-02-15T00:28:47.725Z,24.50
2023-02-15T00:31:22.125Z,24.20
2023-02-15T00:33:56.780Z,23.00
2023-02-15T00:36:29.023Z,24.30
2023-02-15T00:39:05.700Z,22.80
2023-02-15T00:41:38.612Z,28.00
2023-02-15T00:44:11.642Z,31.70
2023-02-15T00:46:44.265Z,28.70
2023-02-15T00:49:16.738Z,28.80
2023-02-15T00:51:49.490Z,27.20
2023-02-15T00:54:22.119Z,30.10
2023-02-15T00:56:56.237Z,26.50
2023-02-15T00:59:28.549Z,27.30
2023-02-15T01:02:00.832Z,27.50
2023-02-15T01:04:33.607Z,28.50
2023-02-15T01:07:10.114Z,28.50
2023-02-15T01:09:44.773Z,27.10
2023-02-15T01:12:19.501Z,25.30
2023-02-15T01:14:53.300Z,27.00
2023-02-15T01:17:25.742Z,26.10
2023-02-15T01:19:58.537Z,24.30
2023-02-15T01:22:30.975Z,26.40
2023-02-15T01:25:03.213Z,25.90
2023-02-15T01:27:35.608Z,26.30
2023-02-15T01:30:12.571Z,24.40
2023-02-15T01:32:45.978Z,24.00
2023-02-15T01:35:18.363Z,24.20
2023-02-15T01:37:51.012Z,23.70
2023-02-15T01:40:28.858Z,24.20
2023-02-15T01:43:03.389Z,28.30
2023-02-15T01:45:38.125Z,25.90
2023-02-15T01:48:21.909Z,27.20
2023-02-15T01:50:59.749Z,26.30
2023-02-15T01:53:38.074Z,27.40
2023-02-15T01:56:17.169Z,25.90
2023-02-15T01:58:56.356Z,27.30
2023-02-15T02:01:30.022Z,26.40
2023-02-15T02:04:09.125Z,28.50
2023-02-15T02:06:42.156Z,26.90
2023-02-15T02:09:14.896Z,26.30
2023-02-15T02:11:50.204Z,27.00
2023-02-15T02:14:23.141Z,26.50
2023-02-15T02:17:00.849Z,27.90
2023-02-15T02:20:16.468Z,27.00
2023-02-15T02:23:10.361Z,29.10
2023-02-15T02:31:48.166Z,31.90
2023-02-15T02:34:27.900Z,30.30
2023-02-15T02:37:17.445Z,28.60
2023-02-15T02:39:57.857Z,28.20
2023-02-15T02:42:38.184Z,27.90
2023-02-15T02:45:16.091Z,29.70
2023-02-15T02:47:56.904Z,25.90
2023-02-15T02:50:31.768Z,25.90
2023-02-15T02:53:04.220Z,26.90
2023-02-15T02:55:42.416Z,26.70
2023-02-15T02:58:20.010Z,25.60
2023-02-15T03:00:59.867Z,29.10
2023-02-15T03:03:39.803Z,27.70
2023-02-15T03:06:18.915Z,27.10
2023-02-15T03:08:54.595Z,28.20
2023-02-15T03:11:27.560Z,26.20
2023-02-15T03:14:01.356Z,26.50
2023-02-15T03:16:33.878Z,25.50
2023-02-15T03:19:10.812Z,27.10
2023-02-15T03:21:50.555Z,27.20
2023-02-15T03:24:29.202Z,27.00
2023-02-15T03:27:05.585Z,28.30
2023-02-15T03:29:41.889Z,27.40
2023-02-15T03:32:16.880Z,29.80
2023-02-15T03:34:52.515Z,27.30
2023-02-15T03:37:32.200Z,27.20
2023-02-15T03:40:25.526Z,26.30
2023-02-15T03:43:04.167Z,30.00
2023-02-15T03:45:39.002Z,28.90
2023-02-15T03:48:14.074Z,31.80
2023-02-15T03:51:04.052Z,30.10
2023-02-15T03:53:37.311Z,31.90
2023-02-15T03:56:10.347Z,31.90
2023-02-15T03:58:59.271Z,31.50
2023-02-15T04:01:56.937Z,29.70
2023-02-15T04:04:34.492Z,29.30
2023-02-15T04:07:11.009Z,30.20
2023-02-15T04:10:01.012Z,31.00
2023-02-15T04:12:34.606Z,31.80
2023-02-15T04:15:25.338Z,32.80
2023-02-15T04:17:57.567Z,34.10
2023-02-15T04:20:48.512Z,31.10
2023-02-15T04:23:38.347Z,32.80
2023-02-15T04:26:10.631Z,33.40
2023-02-15T04:28:42.951Z,29.10
2023-02-15T04:31:15.352Z,30.50
2023-02-15T04:33:48.853Z,30.30
2023-02-15T04:36:21.234Z,30.90
2023-02-15T04:38:55.740Z,30.50
2023-02-15T04:41:28.013Z,29.80
2023-02-15T04:44:00.459Z,31.60
2023-02-15T04:46:33.229Z,32.10
2023-02-15T04:49:06.696Z,32.60
2023-02-15T04:51:40.660Z,33.50
2023-02-15T04:54:12.983Z,32.70
2023-02-15T04:56:45.706Z,33.10
2023-02-15T04:59:20.520Z,34.90
2023-02-15T05:01:52.826Z,33.70
2023-02-15T05:04:25.229Z,34.10
2023-02-15T05:06:57.937Z,35.00
2023-02-15T05:12:43.389Z,35.00
2023-02-15T05:15:16.016Z,31.40
2023-02-15T05:17:48.441Z,34.20
2023-02-15T05:20:21.088Z,34.50
2023-02-15T05:22:56.841Z,34.80
2023-02-15T05:25:47.080Z,31.60
2023-02-15T05:28:22.014Z,32.00
2023-02-15T05:31:03.311Z,33.70
2023-02-15T05:33:36.513Z,32.30
2023-02-15T05:36:10.268Z,34.60
2023-02-15T05:38:42.860Z,32.30
2023-02-15T05:41:15.197Z,32.10
2023-02-15T05:43:50.513Z,33.90
2023-02-15T05:46:22.789Z,35.30
2023-02-15T05:48:56.816Z,34.00
2023-02-15T05:51:32.140Z,33.10
2023-02-15T05:54:04.465Z,32.70
2023-02-15T05:56:36.650Z,35.10
2023-02-15T05:59:09.074Z,35.10
2023-02-15T06:01:41.459Z,35.10
2023-02-15T06:04:15.047Z,35.30
2023-02-15T06:06:47.479Z,35.70
2023-02-15T06:09:20.812Z,36.90
2023-02-15T06:11:53.463Z,36.20
2023-02-15T06:14:25.838Z,33.30
2023-02-15T06:16:58.044Z,32.50
2023-02-15T06:19:30.329Z,33.40
2023-02-15T06:22:03.029Z,31.30
2023-02-15T06:24:35.290Z,30.00
2023-02-15T06:27:07.555Z,31.00
2023-02-15T06:29:40.012Z,29.80
2023-02-15T06:32:12.731Z,31.80
2023-02-15T06:34:45.117Z,32.50
2023-02-15T06:37:19.985Z,32.00
2023-02-15T06:39:52.416Z,31.00
2023-02-15T06:42:24.908Z,27.70
2023-02-15T06:44:57.182Z,32.00
2023-02-15T06:47:30.320Z,30.20
2023-02-15T06:50:02.893Z,31.40
2023-02-15T06:52:35.321Z,31.90
2023-02-15T06:55:08.620Z,31.80
2023-02-15T06:57:40.897Z,29.70
2023-02-15T07:00:18.771Z,30.60
2023-02-15T07:02:58.725Z,30.50
2023-02-15T07:05:36.885Z,30.30
2023-02-15T07:08:10.671Z,27.20
2023-02-15T07:10:45.376Z,28.30
2023-02-15T07:13:17.609Z,29.70
2023-02-15T07:15:52.915Z,24.40
2023-02-15T07:18:25.288Z,27.30
2023-02-15T07:20:58.076Z,27.80
2023-02-15T07:23:30.484Z,29.20
2023-02-15T07:26:04.168Z,28.30
2023-02-15T07:28:37.438Z,28.10
2023-02-15T07:31:10.074Z,31.60
2023-02-15T07:33:43.166Z,30.90
2023-02-15T07:36:15.503Z,30.60
2023-02-15T07:38:47.956Z,30.30
2023-02-15T07:41:21.044Z,33.30
2023-02-15T07:43:53.434Z,29.80
2023-02-15T07:46:26.084Z,34.80
2023-02-15T07:49:01.083Z,32.60
2023-02-15T07:51:36.201Z,33.50
2023-02-15T07:54:10.789Z,32.70
2023-02-15T07:56:51.469Z,33.70
2023-02-15T07:59:26.291Z,34.90
2023-02-15T08:01:59.042Z,34.70
2023-02-15T08:04:32.337Z,33.40
2023-02-15T08:07:05.327Z,33.30
2023-02-15T08:09:37.837Z,30.20
2023-02-15T08:12:10.533Z,30.40
2023-02-15T08:14:43.041Z,31.90
2023-02-15T08:17:15.582Z,32.70
2023-02-15T08:19:48.937Z,34.90
2023-02-15T08:22:21.385Z,31.80
2023-02-15T08:24:55.323Z,31.10
2023-02-15T08:27:27.905Z,30.00
2023-02-15T08:30:00.755Z,30.40
2023-02-15T08:32:33.255Z,30.00
2023-02-15T08:35:07.587Z,27.60
2023-02-15T08:37:39.945Z,27.50
2023-02-15T08:40:14.611Z,29.30
2023-02-15T08:42:46.882Z,29.40
2023-02-15T08:45:19.547Z,30.00
2023-02-15T08:48:04.419Z,28.30
2023-02-15T08:50:50.162Z,33.60
2023-02-15T08:53:22.800Z,31.80
2023-02-15T08:56:00.474Z,29.70
2023-02-15T08:58:40.127Z,31.00
2023-02-15T09:01:21.144Z,30.80
2023-02-15T09:04:05.588Z,29.20
2023-02-15T09:06:47.633Z,29.20
2023-02-15T09:09:24.109Z,30.70
2023-02-15T09:12:00.396Z,30.00
2023-02-15T09:14:33.422Z,28.20
2023-02-15T09:17:05.937Z,30.60
2023-02-15T09:19:38.409Z,32.10
2023-02-15T09:22:15.068Z,31.70
2023-02-15T09:24:51.061Z,31.00
2023-02-15T09:27:23.295Z,28.10
2023-02-15T09:29:55.745Z,31.40
2023-02-15T09:32:28.226Z,31.10
2023-02-15T09:35:00.739Z,29.70
2023-02-15T09:37:40.268Z,29.90
2023-02-15T09:40:18.048Z,30.20
2023-02-15T09:46:26.060Z,32.30
2023-02-15T09:49:08.451Z,35.60
2023-02-15T09:52:10.746Z,35.00
2023-02-15T09:54:58.916Z,31.30
2023-02-15T09:57:38.817Z,32.60
2023-02-15T10:00:22.106Z,32.70
2023-02-15T10:03:13.021Z,34.30
2023-02-15T10:06:00.130Z,34.20
2023-02-15T10:08:59.976Z,35.60
2023-02-15T10:11:43.155Z,35.30
2023-02-15T10:14:39.410Z,35.00
2023-02-15T10:17:26.022Z,36.70
2023-02-15T10:20:12.847Z,32.40
2023-02-15T10:23:02.593Z,34.10
2023-02-15T10:25:44.239Z,35.40
2023-02-15T10:28:20.471Z,39.00
2023-02-15T10:30:54.399Z,39.50
2023-02-15T10:33:40.385Z,38.50
2023-02-15T10:36:30.243Z,37.90
2023-02-15T10:39:10.278Z,31.50
2023-02-15T10:41:53.024Z,35.90
2023-02-15T10:44:42.325Z,35.40
2023-02-15T10:47:31.952Z,35.20
2023-02-15T10:50:16.863Z,37.80
2023-02-15T10:53:07.940Z,34.80
2023-02-15T10:55:54.184Z,33.20
2023-02-15T10:58:38.434Z,34.50
2023-02-15T11:01:22.821Z,35.80
2023-02-15T11:04:18.572Z,35.20
2023-02-15T11:06:57.624Z,38.70
2023-02-15T11:09:39.189Z,35.70
2023-02-15T11:12:27.747Z,33.90
2023-02-15T11:15:05.007Z,33.70
2023-02-15T11:17:43.285Z,35.30
2023-02-15T11:20:26.500Z,35.20
2023-02-15T11:22:58.788Z,34.80
2023-02-15T11:25:34.877Z,35.90
2023-02-15T11:28:16.208Z,33.00
2023-02-15T11:30:55.643Z,33.10
2023-02-15T11:37:02.801Z,32.00
2023-02-15T11:39:34.362Z,31.80
2023-02-15T11:42:11.248Z,35.50
2023-02-15T11:44:48.117Z,33.70
2023-02-15T11:47:17.043Z,34.50
2023-02-15T11:49:47.258Z,30.80
2023-02-15T11:52:19.198Z,32.00
2023-02-15T11:54:51.034Z,30.30
2023-02-15T11:57:27.785Z,29.30
2023-02-15T12:00:04.399Z,30.20
2023-02-15T12:02:39.360Z,31.40
2023-02-15T12:05:13.608Z,31.20
2023-02-15T12:07:47.169Z,32.70
2023-02-15T12:10:22.908Z,31.60
2023-02-15T12:13:11.692Z,32.20
2023-02-15T12:15:44.126Z,30.10
2023-02-15T12:18:25.909Z,29.20
2023-02-15T12:20:59.093Z,26.10
2023-02-15T12:23:30.135Z,26.40
2023-02-15T12:26:00.316Z,26.00
2023-02-15T12:28:35.651Z,25.90
2023-02-15T12:31:18.679Z,26.10
2023-02-15T12:33:49.194Z,27.40
2023-02-15T12:36:22.240Z,27.00
2023-02-15T12:39:18.073Z,26.60
2023-02-15T12:41:57.758Z,24.20
2023-02-15T12:44:29.281Z,26.80
2023-02-15T12:47:00.547Z,25.40
2023-02-15T12:49:30.739Z,28.10
2023-02-15T12:52:01.613Z,26.20
2023-02-15T12:54:40.666Z,27.70
2023-02-15T12:57:23.510Z,26.50
2023-02-15T12:59:54.959Z,26.40
2023-02-15T13:02:27.897Z,26.90
2023-02-15T13:04:58.371Z,25.00
2023-02-15T13:07:33.312Z,25.60
2023-02-15T13:10:02.542Z,26.60
2023-02-15T13:12:32.707Z,25.50
2023-02-15T13:15:05.124Z,25.10
2023-02-15T13:17:35.271Z,27.30
2023-02-15T13:20:09.811Z,25.10
2023-02-15T13:22:43.392Z,23.80
2023-02-15T13:25:18.996Z,25.30
2023-02-15T13:27:52.761Z,23.40
2023-02-15T13:30:27.493Z,23.80
2023-02-15T13:33:04.946Z,22.40
2023-02-15T13:35:42.704Z,23.10
2023-02-15T13:38:28.239Z,23.30
2023-02-15T13:41:04.227Z,23.20
2023-02-15T13:43:46.799Z,25.10
2023-02-15T13:46:25.785Z,23.60
2023-02-15T13:49:07.371Z,23.90
2023-02-15T13:51:42.567Z,24.70
2023-02-15T13:54:37.814Z,23.00
2023-02-15T13:57:26.261Z,22.00
2023-02-15T14:00:10.319Z,22.50
2023-02-15T14:03:19.368Z,22.80
2023-02-15T14:06:04.344Z,23.00
2023-02-15T14:08:52.130Z,22.30
2023-02-15T14:11:28.407Z,20.60
2023-02-15T14:14:41.099Z,22.10
2023-02-15T14:17:23.634Z,20.40
2023-02-15T14:19:58.391Z,21.20
2023-02-15T14:22:36.956Z,22.40
2023-02-15T14:25:18.944Z,21.40
2023-02-15T14:27:57.396Z,21.50
2023-02-15T14:30:30.562Z,20.00
2023-02-15T14:33:06.841Z,21.20
2023-02-15T14:35:36.932Z,21.20
2023-02-15T14:38:16.167Z,21.00
2023-02-15T14:41:02.591Z,20.50
2023-02-15T14:43:42.043Z,19.60
2023-02-15T14:46:19.637Z,19.70
2023-02-15T14:48:51.478Z,18.40
2023-02-15T14:51:58.396Z,19.30
2023-02-15T14:54:59.075Z,20.40
2023-02-15T14:57:34.863Z,18.70
2023-02-15T15:00:34.610Z,19.50
2023-02-15T15:03:10.946Z,18.00
2023-02-15T15:05:50.655Z,19.60
2023-02-15T15:08:29.861Z,18.80
2023-02-15T15:11:44.201Z,19.40
2023-02-15T15:14:41.919Z,18.70
2023-02-15T15:17:38.157Z,17.70
2023-02-15T15:20:14.106Z,18.50
2023-02-15T15:22:44.009Z,18.70
2023-02-15T15:25:35.198Z,18.40
2023-02-15T15:28:04.906Z,18.20
2023-02-15T15:30:54.949Z,17.90
2023-02-15T15:34:07.097Z,17.10
2023-02-15T15:37:08.066Z,17.60
2023-02-15T15:40:10.866Z,16.70
2023-02-15T15:42:50.704Z,17.30
2023-02-15T15:45:55.108Z,17.20
2023-02-15T15:48:31.914Z,16.70
2023-02-15T15:51:04.324Z,17.10
2023-02-15T15:53:41.654Z,16.50
2023-02-15T15:56:16.451Z,16.70
2023-02-15T15:58:50.308Z,15.30
2023-02-15T16:01:27.277Z,16.10
2023-02-15T16:03:57.879Z,17.60
2023-02-15T16:06:33.942Z,17.40
2023-02-15T16:09:18.930Z,16.60
2023-02-15T16:11:51.446Z,16.70
2023-02-15T16:14:27.571Z,17.60
2023-02-15T16:16:59.060Z,16.10
2023-02-15T16:19:31.687Z,16.00
2023-02-15T16:22:03.199Z,15.20
2023-02-15T16:24:49.973Z,15.50
2023-02-15T16:27:32.077Z,16.00
2023-02-15T16:30:19.093Z,14.10
2023-02-15T16:32:48.518Z,14.80
2023-02-15T16:35:22.607Z,15.50
2023-02-15T16:37:58.934Z,16.50
2023-02-15T16:40:36.683Z,15.70
2023-02-15T16:43:12.533Z,15.10
2023-02-15T16:45:41.616Z,15.30
2023-02-15T16:48:19.437Z,16.80
2023-02-15T16:50:55.512Z,15.50
2023-02-15T16:53:27.284Z,16.50
2023-02-15T16:55:58.718Z,19.30
2023-02-15T16:58:36.932Z,16.80
2023-02-15T17:01:09.603Z,16.80
2023-02-15T17:03:39.861Z,16.00
2023-02-15T17:06:22.085Z,16.00
2023-02-15T17:08:51.193Z,17.40
2023-02-15T17:11:22.139Z,15.60
2023-02-15T17:14:14.811Z,16.60
2023-02-15T17:16:49.410Z,17.20
2023-02-15T17:19:21.708Z,18.10
2023-02-15T17:21:53.547Z,15.20
2023-02-15T17:24:36.588Z,16.40
2023-02-15T17:27:12.862Z,15.20
2023-02-15T17:29:45.521Z,19.90
2023-02-15T17:32:19.665Z,17.00
2023-02-15T17:35:17.620Z,19.30
2023-02-15T17:37:49.157Z,17.10
2023-02-15T17:40:25.515Z,18.00
2023-02-15T17:46:07.771Z,20.90
2023-02-15T17:48:43.377Z,19.30
2023-02-15T17:51:17.463Z,24.80
2023-02-15T17:54:04.274Z,21.40
2023-02-15T17:56:38.178Z,22.70
2023-02-15T17:59:12.607Z,26.70
2023-02-15T18:02:07.271Z,24.60
2023-02-15T18:04:58.069Z,26.80
2023-02-15T18:07:49.102Z,28.50
2023-02-15T18:10:39.744Z,32.10
2023-02-15T18:13:12.188Z,28.90
2023-02-15T18:15:44.550Z,31.20
2023-02-15T18:18:16.979Z,33.30
2023-02-15T18:20:49.364Z,33.90
2023-02-15T18:23:21.673Z,33.10
2023-02-15T18:25:53.977Z,30.80
2023-02-15T18:28:26.255Z,34.30
2023-02-15T18:31:01.917Z,33.80
2023-02-15T18:33:40.463Z,33.40
2023-02-15T18:36:19.703Z,33.70
2023-02-15T18:38:53.631Z,31.50
2023-02-15T18:41:26.657Z,36.00
2023-02-15T18:43:58.832Z,35.20
2023-02-15T18:46:31.003Z,35.60
2023-02-15T18:49:03.183Z,37.80
2023-02-15T18:51:40.434Z,35.20
2023-02-15T18:54:21.550Z,33.60
2023-02-15T18:56:57.595Z,36.00
2023-02-15T18:59:32.633Z,34.90
2023-02-15T19:02:07.225Z,33.20
2023-02-15T19:04:39.531Z,32.80
2023-02-15T19:07:18.664Z,31.00
2023-02-15T19:09:54.170Z,32.50
2023-02-15T19:12:27.435Z,35.10
2023-02-15T19:15:00.103Z,33.60
2023-02-15T19:17:32.493Z,32.00
2023-02-15T19:20:04.686Z,35.10
2023-02-15T19:22:36.997Z,35.70
2023-02-15T19:25:14.990Z,32.00
2023-02-15T19:27:50.520Z,33.70
2023-02-15T19:30:29.970Z,33.30
2023-02-15T19:33:05.149Z,36.70
2023-02-15T19:35:38.346Z,35.00
2023-02-15T19:38:17.354Z,36.60
2023-02-15T19:40:50.412Z,38.30
2023-02-15T19:43:27.913Z,36.70
2023-02-15T19:46:00.171Z,38.10
2023-02-15T19:48:32.841Z,38.50
2023-02-15T19:51:05.226Z,37.80
2023-02-15T19:53:37.462Z,37.10
2023-02-15T19:56:14.167Z,41.10
2023-02-15T19:58:46.314Z,40.80
2023-02-15T20:01:19.411Z,39.70
2023-02-15T20:03:52.232Z,41.60
2023-02-15T20:06:24.476Z,39.20
2023-02-15T20:08:57.093Z,39.90
2023-02-15T20:11:29.326Z,40.80
2023-02-15T20:14:01.518Z,42.20
2023-02-15T20:16:33.756Z,42.50
2023-02-15T20:19:06.507Z,41.50
2023-02-15T20:21:39.274Z,42.20
2023-02-15T20:24:17.948Z,41.40
2023-02-15T20:26:50.445Z,42.50
2023-02-15T20:29:23.175Z,35.50
2023-02-15T20:31:55.861Z,37.70
2023-02-15T20:34:28.239Z,42.60
2023-02-15T20:37:00.921Z,42.50
2023-02-15T20:39:35.001Z,42.20
2023-02-15T20:42:07.553Z,41.40
2023-02-15T20:44:41.238Z,40.30
2023-02-15T20:47:16.575Z,37.90
2023-02-15T20:49:48.972Z,42.10
2023-02-15T20:52:22.205Z,40.00
2023-02-15T20:54:54.673Z,41.70
2023-02-15T20:57:26.971Z,41.20
2023-02-15T20:59:59.564Z,42.30
2023-02-15T21:02:31.897Z,43.20
2023-02-15T21:05:04.818Z,42.80
2023-02-15T21:07:38.454Z,38.00
2023-02-15T21:10:16.993Z,43.00
2023-02-15T21:12:51.012Z,42.80
2023-02-15T21:15:32.978Z,44.00
2023-02-15T21:18:08.203Z,44.50
2023-02-15T21:20:46.547Z,43.00
2023-02-15T21:23:22.322Z,45.70
2023-02-15T21:25:55.471Z,41.20
2023-02-15T21:28:29.130Z,43.80
2023-02-15T21:31:02.304Z,44.80
2023-02-15T21:33:35.155Z,42.80
2023-02-15T21:36:14.238Z,44.60
2023-02-15T21:38:47.066Z,43.60
2023-02-15T21:41:41.884Z,44.00
2023-02-15T21:44:38.349Z,41.80
2023-02-15T21:47:39.047Z,44.00
2023-02-15T21:50:31.676Z,49.40
2023-02-15T21:53:05.228Z,46.60
2023-02-15T21:55:37.525Z,48.50
2023-02-15T21:58:16.138Z,48.00
2023-02-15T22:00:49.481Z,48.10
2023-02-15T22:03:22.239Z,44.50
2023-02-15T22:05:54.645Z,47.80
2023-02-15T22:08:26.808Z,47.20
2023-02-15T22:10:59.502Z,45.30
2023-02-15T22:13:34.262Z,43.80
2023-02-15T22:16:07.098Z,44.80
2023-02-15T22:18:39.271Z,44.10
2023-02-15T22:21:12.219Z,43.40
2023-02-15T22:23:44.478Z,44.80
2023-02-15T22:26:23.845Z,42.90
2023-02-15T22:28:57.925Z,46.40
2023-02-15T22:31:30.946Z,44.30
2023-02-15T22:34:05.830Z,44.40
2023-02-15T22:36:38.244Z,42.70
2023-02-15T22:39:10.537Z,43.50
2023-02-15T22:41:42.960Z,43.10
2023-02-15T22:44:18.875Z,45.90
2023-02-15T22:46:51.460Z,43.10
2023-02-15T22:49:24.101Z,40.80
2023-02-15T22:51:56.466Z,40.70
2023-02-15T22:54:28.743Z,42.40
2023-02-15T22:57:01.532Z,44.60
2023-02-15T22:59:34.377Z,42.90
2023-02-15T23:02:07.680Z,43.50
2023-02-15T23:04:39.888Z,42.90
2023-02-15T23:07:16.444Z,45.60
2023-02-15T23:09:49.149Z,44.60
2023-02-15T23:12:28.215Z,41.90
2023-02-15T23:15:00.699Z,44.30
2023-02-15T23:17:33.127Z,42.50
2023-02-15T23:20:05.931Z,41.80
2023-02-15T23:22:38.383Z,41.60
2023-02-15T23:25:13.952Z,44.50
2023-02-15T23:27:58.542Z,44.40
2023-02-15T23:30:30.950Z,44.20
2023-02-15T23:33:03.422Z,46.30
2023-02-15T23:35:35.875Z,44.10
2023-02-15T23:38:13.508Z,41.80
2023-02-15T23:41:05.370Z,41.60
2023-02-15T23:43:38.676Z,42.80
2023-02-15T23:46:18.611Z,42.70
2023-02-15T23:48:51.180Z,43.90
2023-02-15T23:51:32.992Z,46.60
2023-02-15T23:54:05.536Z,44.30
2023-02-15T23:56:42.311Z,44.00
2023-02-15T23:59:19.293Z,42.90
